Time;durP1;ratioP1;P1;durP2;ratioP2;P2;SDS_P1;SDS_P2;PMS_P1;PMS_P2;Temp;Humidity;BMP_temperature;BMP_pressure;BME280_temperature;BME280_humidity;BME280_pressure;Samples;Min_cycle;Max_cycle;Signal;HPM_P1;HPM_P2
2022/01/25 00:16:13;;;;;;;34.93;14.23;;;;;;;-6.56;84.50;101415.23;1805572;78;21040;-74
2022/01/25 00:26:29;;;;;;;107.57;34.17;;;;;;;-6.67;84.55;101407.02;1796210;78;21045;-73
2022/01/25 00:29:04;;;;;;;64.67;24.53;;;;;;;-6.68;84.98;101400.11;1774905;78;21547;-73
2022/01/25 00:31:23;;;;;;;34.17;14.30;;;;;;;-6.68;85.65;101398.83;1798263;78;21220;-72
2022/01/25 00:33:54;;;;;;;75.07;26.37;;;;;;;-6.67;85.71;101397.13;1803624;79;21092;-74
2022/01/25 00:36:23;;;;;;;27.50;13.60;;;;;;;-6.67;85.72;101391.64;1805927;78;21043;-74
2022/01/25 00:38:50;;;;;;;28.10;12.17;;;;;;;-6.68;85.32;101397.55;1813644;79;21062;-74
2022/01/25 00:41:17;;;;;;;27.63;13.33;;;;;;;-6.67;85.35;101394.20;1778745;77;21070;-72
2022/01/25 00:43:44;;;;;;;37.37;14.17;;;;;;;-6.68;85.05;101394.11;1765446;81;21142;-72
2022/01/25 00:46:12;;;;;;;23.13;10.27;;;;;;;-6.70;85.36;101393.14;1805778;78;21555;-73
2022/01/25 00:48:48;;;;;;;66.37;22.33;;;;;;;-6.71;85.11;101392.27;1818917;78;21090;-73
2022/01/25 00:54:13;;;;;;;32.63;15.00;;;;;;;-6.79;84.74;101384.56;1804494;79;21609;-73
2022/01/25 00:56:48;;;;;;;44.30;16.07;;;;;;;-6.85;84.62;101383.85;1810171;78;21862;-72
2022/01/25 00:59:21;;;;;;;45.97;16.67;;;;;;;-6.86;84.85;101388.88;1781717;80;21107;-73
2022/01/25 01:01:51;;;;;;;37.30;16.17;;;;;;;-6.90;84.75;101380.55;1795766;78;21077;-72
2022/01/25 01:04:18;;;;;;;34.40;15.70;;;;;;;-6.90;85.18;101381.83;1813355;79;22082;-73
2022/01/25 01:06:47;;;;;;;21.97;10.80;;;;;;;-6.93;84.72;101375.27;1800325;78;22152;-72
2022/01/25 01:09:15;;;;;;;27.50;11.27;;;;;;;-6.96;84.67;101380.70;1811316;78;21099;-74
2022/01/25 01:11:53;;;;;;;25.00;10.93;;;;;;;-6.97;84.67;101376.39;1808247;78;21563;-74
2022/01/25 01:30:42;;;;;;;25.03;10.97;;;;;;;-7.11;84.41;101376.03;1792443;80;21048;-74
2022/01/25 01:38:53;;;;;;;190.27;58.07;;;;;;;-7.22;84.62;101372.03;1795938;78;21554;-72
2022/01/25 01:41:09;;;;;;;117.53;36.53;;;;;;;-7.21;85.07;101369.94;1811841;78;21058;-72
2022/01/25 01:43:31;;;;;;;29.63;11.97;;;;;;;-7.19;85.45;101378.59;1815676;78;21064;-73
2022/01/25 01:48:54;;;;;;;;;;;;;;;-7.23;85.67;101377.52;1808014;78;21129;-73
2022/01/25 01:51:18;;;;;;;43.70;17.20;;;;;;;-7.22;86.04;101375.87;1788244;78;20894;-72
2022/01/25 01:53:42;;;;;;;30.90;13.27;;;;;;;-7.22;86.16;101369.47;1774856;79;21048;-71
2022/01/25 01:56:09;;;;;;;27.20;11.30;;;;;;;-7.24;86.37;101378.75;1798535;78;21057;-71
2022/01/25 01:58:37;;;;;;;65.53;21.17;;;;;;;-7.27;85.04;101372.16;1794430;79;21044;-70
2022/01/25 02:01:06;;;;;;;126.70;40.63;;;;;;;-7.32;85.11;101371.03;1801392;78;21113;-72
2022/01/25 02:03:32;;;;;;;23.23;11.80;;;;;;;-7.30;85.67;101370.72;1807612;79;21069;-71
2022/01/25 02:05:58;;;;;;;73.20;26.27;;;;;;;-7.27;86.24;101373.44;1755327;81;21890;-71
2022/01/25 02:08:26;;;;;;;121.50;39.77;;;;;;;-7.29;85.83;101376.31;1805965;79;21274;-71
2022/01/25 02:10:52;;;;;;;141.20;45.87;;;;;;;-7.30;86.15;101361.77;1798747;79;21046;-69
2022/01/25 02:13:19;;;;;;;325.90;100.30;;;;;;;-7.28;86.33;101360.17;1809311;79;21133;-69
2022/01/25 02:15:48;;;;;;;181.33;55.17;;;;;;;-7.30;86.02;101351.52;1813415;79;21488;-69
2022/01/25 02:23:33;;;;;;;33.20;14.50;;;;;;;-7.33;86.08;101363.76;1816148;77;21357;-70
2022/01/25 02:26:03;;;;;;;22.53;11.23;;;;;;;-7.31;86.69;101354.89;1810265;79;21508;-69
2022/01/25 02:28:33;;;;;;;26.85;12.90;;;;;;;-7.27;86.63;101356.80;1816948;79;21072;-71
2022/01/25 02:31:00;;;;;;;25.60;11.70;;;;;;;-7.26;86.92;101353.46;1816367;78;21008;-71
2022/01/25 02:33:28;;;;;;;65.47;22.47;;;;;;;-7.25;86.72;101350.09;1818218;77;21060;-71
2022/01/25 02:35:55;;;;;;;118.70;35.13;;;;;;;-7.24;86.93;101354.43;1815594;79;21081;-73
2022/01/25 02:38:28;;;;;;;30.20;13.97;;;;;;;-7.26;86.87;101356.02;1791495;79;21105;-71
2022/01/25 02:40:56;;;;;;;178.30;54.63;;;;;;;-7.26;86.98;101347.06;1815817;79;21133;-70
2022/01/25 02:43:22;;;;;;;39.73;16.87;;;;;;;-7.26;86.89;101338.10;1815961;79;21778;-70
2022/01/25 02:46:07;;;;;;;97.77;34.30;;;;;;;-7.29;87.21;101345.59;1815965;79;21050;-71
2022/01/25 02:48:30;;;;;;;138.43;43.87;;;;;;;-7.32;87.29;101339.91;1800284;79;21005;-70
2022/01/25 02:51:02;;;;;;;189.97;62.70;;;;;;;-7.35;87.75;101333.36;1783776;80;22292;-71
2022/01/25 02:53:28;;;;;;;60.33;23.10;;;;;;;-7.38;88.31;101326.80;1792501;78;21529;-71
2022/01/25 02:55:56;;;;;;;32.57;14.13;;;;;;;-7.43;89.00;101326.55;1815348;79;21051;-72
2022/01/25 02:58:22;;;;;;;51.63;18.23;;;;;;;-7.48;88.64;101324.12;1810067;79;21073;-70
2022/01/25 03:00:49;;;;;;;28.17;11.97;;;;;;;-7.54;88.87;101336.59;1810346;79;21049;-71
2022/01/25 03:03:16;;;;;;;25.53;10.93;;;;;;;-7.61;88.92;101325.55;1806069;78;21124;-72
2022/01/25 03:05:44;;;;;;;34.97;15.40;;;;;;;-7.70;88.93;101326.31;1788132;79;21044;-73
2022/01/25 03:08:14;;;;;;;26.20;11.03;;;;;;;-7.72;89.68;101327.90;1771846;80;21047;-73
2022/01/25 03:10:44;;;;;;;25.13;11.07;;;;;;;-7.75;90.47;101331.17;1772608;79;21008;-73
2022/01/25 03:13:16;;;;;;;22.23;10.07;;;;;;;-7.79;90.37;101336.91;1767357;78;21073;-73
2022/01/25 03:15:56;;;;;;;30.60;11.73;;;;;;;-7.85;90.57;101333.98;1730375;82;21102;-73
2022/01/25 03:18:24;;;;;;;384.20;116.50;;;;;;;-7.89;90.95;101330.40;1677291;83;21573;-74
2022/01/25 03:20:51;;;;;;;339.80;108.43;;;;;;;-7.92;91.27;101320.38;1707972;82;21552;-76
2022/01/25 03:23:21;;;;;;;224.07;70.07;;;;;;;-7.91;91.44;101317.92;1677035;82;21134;-71
2022/01/25 03:25:49;;;;;;;201.90;63.97;;;;;;;-7.92;91.93;101305.91;1696290;84;21123;-70
2022/01/25 03:28:17;;;;;;;197.13;56.13;;;;;;;-7.93;92.44;101298.17;1696368;84;21076;-69
2022/01/25 03:30:44;;;;;;;47.40;18.97;;;;;;;-7.99;92.34;101289.74;1706118;81;21080;-71
2022/01/25 03:33:13;;;;;;;47.60;19.67;;;;;;;-8.06;92.18;101285.09;1728047;81;22052;-70
2022/01/25 03:35:40;;;;;;;57.57;21.77;;;;;;;-8.10;92.13;101285.70;1682588;82;21043;-72
2022/01/25 03:38:06;;;;;;;44.77;18.37;;;;;;;-8.17;92.33;101277.20;1688849;82;21569;-72
2022/01/25 03:40:33;;;;;;;76.07;26.13;;;;;;;-8.24;92.28;101278.53;1733548;82;21343;-70
2022/01/25 03:43:01;;;;;;;25.67;11.07;;;;;;;-8.30;92.41;101272.69;1702415;84;21063;-70
2022/01/25 03:45:31;;;;;;;24.03;11.20;;;;;;;-8.38;92.26;101261.13;1733469;82;21006;-70
2022/01/25 03:49:48;;;;;;;24.97;10.33;;;;;;;-8.44;92.20;101272.33;1704780;83;21075;-70
2022/01/25 03:50:28;;;;;;;22.80;10.43;;;;;;;-8.54;92.00;101274.72;1730546;82;21041;-71
2022/01/25 03:52:55;;;;;;;49.63;16.00;;;;;;;-8.63;91.95;101270.76;1704678;84;21356;-72
2022/01/25 03:55:21;;;;;;;38.77;12.70;;;;;;;-8.71;92.05;101268.64;1733523;82;21030;-66
2022/01/25 03:57:48;;;;;;;28.07;11.27;;;;;;;-8.79;92.26;101264.74;1694568;84;21211;-67
2022/01/25 04:00:16;;;;;;;32.20;12.00;;;;;;;-8.86;92.47;101263.91;1676450;85;21116;-67
2022/01/25 04:02:51;;;;;;;34.70;12.97;;;;;;;-8.94;92.58;101266.41;1676548;85;21103;-68
2022/01/25 04:05:20;;;;;;;29.80;11.53;;;;;;;-9.01;92.69;101256.63;1695092;84;21142;-67
2022/01/25 04:07:50;;;;;;;25.47;10.47;;;;;;;-9.08;92.77;101253.70;1694928;84;21055;-68
2022/01/25 04:10:13;;;;;;;32.90;14.03;;;;;;;-9.14;92.87;101253.32;1696328;84;21072;-68
2022/01/25 04:12:39;;;;;;;40.73;14.13;;;;;;;-9.22;93.01;101254.55;1681374;84;21101;-68
2022/01/25 04:15:10;;;;;;;128.80;42.03;;;;;;;-9.29;93.11;101248.59;1678422;85;21089;-68
2022/01/25 04:17:38;;;;;;;171.15;55.92;;;;;;;-9.34;93.35;101241.94;1698111;84;21652;-67
2022/01/25 04:20:18;;;;;;;33.90;15.03;;;;;;;-9.36;93.94;101245.16;1673546;83;21046;-67
2022/01/25 04:25:25;;;;;;;51.03;22.57;;;;;;;-9.48;94.07;101248.24;1708701;83;21058;-68
2022/01/25 04:27:51;;;;;;;41.30;15.33;;;;;;;-9.56;94.33;101243.56;1686460;82;21109;-70
2022/01/25 04:30:18;;;;;;;345.33;89.33;;;;;;;-9.60;94.37;101242.88;1687851;83;21220;-74
2022/01/25 04:32:52;;;;;;;325.97;95.73;;;;;;;-9.67;94.31;101238.19;1708397;82;21134;-74
2022/01/25 04:54:34;;;;;;;177.03;50.87;;;;;;;-9.88;100.00;101243.23;1717909;82;21046;-67
2022/01/25 04:59:43;;;;;;;42.43;16.33;;;;;;;-9.81;100.00;101218.61;1716959;82;21077;-67
2022/01/25 05:02:11;;;;;;;64.82;21.80;;;;;;;-9.64;100.00;101228.16;1684761;83;21550;-68
2022/01/25 05:04:40;;;;;;;66.70;23.20;;;;;;;-9.58;100.00;101223.45;1668019;84;21136;-67
2022/01/25 05:07:51;;;;;;;123.97;51.60;;;;;;;-9.52;100.00;101223.84;1714615;82;21062;-66
2022/01/25 05:09:35;;;;;;;52.03;20.43;;;;;;;-9.45;100.00;101224.19;1665279;83;21154;-69
2022/01/25 05:12:05;;;;;;;75.37;37.20;;;;;;;-9.38;100.00;101222.12;1708918;82;21066;-67
2022/01/25 05:14:35;;;;;;;42.57;17.80;;;;;;;-9.31;100.00;101222.10;1696787;83;21205;-66
2022/01/25 05:17:06;;;;;;;157.87;44.73;;;;;;;-9.23;100.00;101224.70;1690935;83;21596;-66
2022/01/25 05:24:47;;;;;;;55.57;19.90;;;;;;;-8.93;100.00;101209.05;1702344;84;21683;-67
2022/01/25 05:27:17;;;;;;;31.53;13.10;;;;;;;-8.84;100.00;101211.66;1683646;85;21129;-67
2022/01/25 05:29:44;;;;;;;40.70;14.93;;;;;;;-8.77;100.00;101214.66;1702529;84;21144;-67
2022/01/25 05:32:11;;;;;;;28.87;12.67;;;;;;;-8.74;100.00;101213.94;1683923;85;21101;-66
2022/01/25 05:34:39;;;;;;;20.27;9.63;;;;;;;-8.68;100.00;101202.41;1702536;82;21118;-66
2022/01/25 05:37:07;;;;;;;22.10;9.60;;;;;;;-8.60;100.00;101206.70;1688040;83;21105;-66
2022/01/25 05:39:37;;;;;;;22.87;8.77;;;;;;;-8.54;100.00;101204.88;1681749;84;21085;-67
2022/01/25 05:47:24;;;;;;;31.33;11.60;;;;;;;-8.37;100.00;101194.30;1691093;83;21074;-68
2022/01/25 05:49:48;;;;;;;23.80;9.88;;;;;;;-8.38;100.00;101202.36;1676197;84;21081;-67
2022/01/25 05:52:15;;;;;;;26.77;10.90;;;;;;;-8.36;100.00;101194.39;1683532;83;21089;-67
2022/01/25 05:54:42;;;;;;;52.53;16.83;;;;;;;-8.33;99.89;101178.34;1693090;84;21097;-68
2022/01/25 05:57:08;;;;;;;176.93;55.10;;;;;;;-8.31;99.33;101178.91;1658905;84;21024;-66
2022/01/25 05:59:37;;;;;;;83.77;27.63;;;;;;;-8.29;98.46;101189.23;1689492;83;21152;-66
2022/01/25 06:02:06;;;;;;;122.00;26.00;;;;;;;-8.27;98.06;101191.07;1710662;82;21081;-67
2022/01/25 06:04:33;;;;;;;59.90;18.53;;;;;;;-8.24;97.95;101201.45;1685225;83;21121;-68
2022/01/25 06:07:00;;;;;;;28.77;11.63;;;;;;;-8.20;97.85;101194.85;1703454;82;21057;-67
2022/01/25 06:09:28;;;;;;;23.33;10.43;;;;;;;-8.14;97.60;101198.12;1691176;83;21081;-68
2022/01/25 06:11:55;;;;;;;22.40;9.53;;;;;;;-8.10;97.25;101196.23;1702015;82;21133;-67
2022/01/25 06:14:22;;;;;;;20.53;7.93;;;;;;;-8.08;96.52;101199.76;1694584;83;21110;-68
2022/01/25 06:16:50;;;;;;;18.07;8.40;;;;;;;-8.05;96.19;101189.69;1673470;84;21027;-68
2022/01/25 06:19:16;;;;;;;19.70;8.77;;;;;;;-8.03;95.81;101193.21;1675810;84;21677;-68
2022/01/25 06:21:43;;;;;;;17.27;7.97;;;;;;;-8.01;95.41;101191.22;1675161;84;21112;-68
2022/01/25 06:24:10;;;;;;;20.90;9.10;;;;;;;-7.98;95.17;101184.14;1692823;84;21135;-68
2022/01/25 06:26:37;;;;;;;24.63;10.83;;;;;;;-7.92;95.03;101183.58;1707951;82;21032;-67
2022/01/25 06:29:03;;;;;;;23.47;9.40;;;;;;;-7.87;94.89;101180.50;1678837;84;21811;-68
2022/01/25 06:31:31;;;;;;;19.00;9.00;;;;;;;-7.83;94.69;101172.16;1710000;82;21101;-66
2022/01/25 06:33:59;;;;;;;16.87;8.77;;;;;;;-7.78;94.36;101173.69;1683588;83;21094;-69
2022/01/25 06:36:26;;;;;;;20.53;8.60;;;;;;;-7.74;93.96;101169.23;1723984;82;22307;-69
2022/01/25 06:38:53;;;;;;;19.07;8.60;;;;;;;-7.70;93.42;101167.73;1678180;84;21613;-70
2022/01/25 06:41:20;;;;;;;17.30;8.17;;;;;;;-7.69;92.95;101174.59;1722856;82;21022;-69
2022/01/25 06:43:46;;;;;;;16.83;7.97;;;;;;;-7.68;92.34;101172.53;1682951;84;21133;-69
2022/01/25 06:46:13;;;;;;;18.53;8.47;;;;;;;-7.68;92.07;101175.09;1707720;82;21088;-69
2022/01/25 06:48:39;;;;;;;17.50;7.53;;;;;;;-7.66;91.93;101176.02;1708086;82;21101;-70
2022/01/25 06:51:06;;;;;;;19.30;9.00;;;;;;;-7.66;91.64;101176.02;1686229;84;21641;-71
2022/01/25 06:53:33;;;;;;;17.37;8.50;;;;;;;-7.67;89.93;101167.88;1712945;82;21064;-70
2022/01/25 06:56:01;;;;;;;18.40;9.33;;;;;;;-7.71;89.81;101157.87;1695329;84;21581;-69
2022/01/25 06:58:28;;;;;;;18.63;8.47;;;;;;;-7.77;89.52;101143.91;1720612;82;21042;-68
2022/01/25 07:00:56;;;;;;;17.07;7.97;;;;;;;-7.73;89.89;101144.52;1711577;82;21089;-69
2022/01/25 07:03:23;;;;;;;20.37;8.83;;;;;;;-7.69;89.71;101147.73;1684192;84;21084;-68
2022/01/25 07:05:50;;;;;;;16.90;8.73;;;;;;;-7.67;89.37;101149.97;1670210;84;21070;-68
2022/01/25 07:08:18;;;;;;;15.70;8.03;;;;;;;-7.66;89.42;101151.34;1702596;84;21079;-68
2022/01/25 07:10:48;;;;;;;18.53;8.93;;;;;;;-7.61;89.36;101147.75;1693150;84;21046;-68
2022/01/25 07:13:15;;;;;;;14.87;8.33;;;;;;;-7.62;88.91;101145.97;1681841;84;21113;-67
2022/01/25 07:15:42;;;;;;;16.67;8.87;;;;;;;-7.63;88.85;101141.67;1708252;82;21041;-69
2022/01/25 07:18:09;;;;;;;18.33;9.00;;;;;;;-7.65;88.46;101140.30;1724620;82;21042;-68
2022/01/25 07:20:35;;;;;;;18.97;9.23;;;;;;;-7.62;88.66;101142.13;1704552;84;21055;-67
2022/01/25 07:23:02;;;;;;;21.70;8.97;;;;;;;-7.58;88.74;101135.11;1733007;82;21029;-68
2022/01/25 07:25:30;;;;;;;37.37;14.40;;;;;;;-7.56;87.86;101125.83;1704726;83;21123;-68
2022/01/25 07:27:56;;;;;;;62.33;20.80;;;;;;;-7.57;87.75;101124.05;1733572;82;21087;-68
2022/01/25 07:30:23;;;;;;;128.77;42.27;;;;;;;-7.52;88.23;101127.77;1684548;84;21078;-67
2022/01/25 07:32:50;;;;;;;63.87;24.53;;;;;;;-7.44;88.21;101123.02;1713957;82;21073;-68
2022/01/25 07:35:16;;;;;;;21.97;11.23;;;;;;;-7.40;87.49;101125.82;1701241;84;21447;-67
2022/01/25 07:37:43;;;;;;;18.67;8.97;;;;;;;-7.33;87.43;101132.55;1701199;84;21139;-67
2022/01/25 07:40:12;;;;;;;20.90;8.63;;;;;;;-7.29;86.90;101129.31;1703186;84;21599;-68
2022/01/25 07:43:00;;;;;;;14.10;7.45;;;;;;;-7.24;86.69;101126.61;1753376;81;21073;-68
2022/01/25 07:45:28;;;;;;;20.93;9.33;;;;;;;-7.18;86.48;101119.22;1753301;81;21068;-68
2022/01/25 07:47:55;;;;;;;18.37;9.53;;;;;;;-7.15;85.90;101118.48;1753310;81;21066;-68
2022/01/25 07:50:23;;;;;;;16.73;8.30;;;;;;;-7.12;85.68;101122.09;1720474;83;21956;-68
2022/01/25 07:52:50;;;;;;;19.87;9.10;;;;;;;-7.14;85.04;101113.45;1724564;83;21045;-68
2022/01/25 07:55:17;;;;;;;21.53;9.03;;;;;;;-7.11;85.30;101107.20;1727408;81;21036;-68
2022/01/25 07:57:44;;;;;;;22.13;8.87;;;;;;;-7.08;85.21;101112.49;1724264;82;21486;-68
2022/01/25 08:00:12;;;;;;;18.87;7.47;;;;;;;-7.01;85.02;101101.75;1758850;81;21047;-68
2022/01/25 08:02:41;;;;;;;20.00;8.80;;;;;;;-6.94;84.78;101097.81;1781842;80;21182;-70
2022/01/25 08:05:08;;;;;;;20.03;8.67;;;;;;;-6.92;84.49;101087.62;1760520;81;21043;-69
2022/01/25 08:07:35;;;;;;;18.47;8.70;;;;;;;-6.81;84.04;101095.42;1730045;81;21078;-69
2022/01/25 08:10:03;;;;;;;19.43;8.53;;;;;;;-6.77;83.80;101090.52;1744691;81;21041;-68
2022/01/25 08:12:29;;;;;;;21.50;9.37;;;;;;;-6.71;83.57;101091.65;1745058;81;21348;-68
2022/01/25 08:14:58;;;;;;;17.00;8.53;;;;;;;-6.67;82.60;101085.84;1761218;80;21152;-68
2022/01/25 08:17:25;;;;;;;15.23;8.20;;;;;;;-6.66;81.24;101079.93;1775883;80;21795;-69
2022/01/25 08:19:51;;;;;;;131.90;41.67;;;;;;;-6.73;80.55;101072.77;1767699;80;21506;-70
2022/01/25 08:22:20;;;;;;;37.23;15.93;;;;;;;-6.74;80.93;101074.42;1709287;82;21107;-68
2022/01/25 08:24:48;;;;;;;30.43;12.90;;;;;;;-6.69;81.32;101072.98;1762191;80;21040;-68
2022/01/25 08:27:15;;;;;;;35.87;14.43;;;;;;;-6.66;81.60;101062.87;1733847;81;21512;-68
2022/01/25 08:29:42;;;;;;;21.53;10.07;;;;;;;-6.66;81.77;101062.87;1753769;81;21030;-68
2022/01/25 08:32:10;;;;;;;27.83;12.30;;;;;;;-6.72;80.23;101063.84;1751339;81;21045;-68
2022/01/25 08:34:38;;;;;;;31.57;12.97;;;;;;;-6.84;80.30;101065.42;1777296;80;21108;-68
2022/01/25 08:37:06;;;;;;;22.63;10.00;;;;;;;-6.91;81.36;101059.53;1751258;80;21026;-68
2022/01/25 08:39:33;;;;;;;26.80;12.03;;;;;;;-6.83;82.34;101061.17;1763868;80;21081;-67
2022/01/25 08:42:00;;;;;;;32.30;13.43;;;;;;;-6.73;81.50;101071.07;1736568;81;21077;-68
2022/01/25 08:44:27;;;;;;;32.00;14.37;;;;;;;-6.66;81.88;101067.12;1718034;82;21049;-67
2022/01/25 08:46:54;;;;;;;56.70;19.77;;;;;;;-6.66;80.62;101065.43;1762430;80;21064;-67
2022/01/25 08:49:21;;;;;;;117.47;39.13;;;;;;;-6.63;80.95;101063.00;1766460;80;21564;-67
2022/01/25 08:51:48;;;;;;;68.20;24.87;;;;;;;-6.58;80.56;101069.62;1770702;80;21164;-67
2022/01/25 08:54:16;;;;;;;56.63;21.63;;;;;;;-6.54;80.69;101060.87;1724343;82;21380;-67
2022/01/25 08:56:44;;;;;;;23.90;10.07;;;;;;;-6.47;81.57;101049.63;1788153;80;21056;-67
2022/01/25 08:59:11;;;;;;;17.73;8.97;;;;;;;-6.37;81.57;101037.73;1766352;80;21525;-67
2022/01/25 09:01:37;;;;;;;20.67;9.80;;;;;;;-6.28;80.42;101031.75;1789506;80;21029;-67
2022/01/25 09:04:06;;;;;;;16.80;8.63;;;;;;;-6.23;78.55;101028.98;1775952;80;21136;-67
2022/01/25 09:06:34;;;;;;;19.10;8.80;;;;;;;-6.25;77.80;101026.74;1707719;82;21060;-67
2022/01/25 09:09:04;;;;;;;40.10;16.93;;;;;;;-6.21;77.45;101021.33;1765087;80;21062;-67
2022/01/25 09:11:31;;;;;;;28.80;12.00;;;;;;;-6.25;77.26;101015.20;1772496;79;21057;-67
2022/01/25 09:13:58;;;;;;;29.13;13.27;;;;;;;-6.13;77.80;101026.00;1762004;80;21524;-67
2022/01/25 09:16:25;;;;;;;25.20;11.73;;;;;;;-5.93;78.32;101011.88;1762149;81;21093;-69
2022/01/25 09:18:51;;;;;;;22.33;10.00;;;;;;;-5.72;78.36;101007.66;1761908;81;21100;-67
2022/01/25 09:21:18;;;;;;;26.70;12.23;;;;;;;-5.40;76.95;101004.30;1762068;81;21096;-67
2022/01/25 09:23:45;;;;;;;26.77;11.47;;;;;;;-5.13;76.01;100992.09;1762371;80;21077;-65
2022/01/25 09:26:11;;;;;;;28.63;12.97;;;;;;;-4.96;73.02;100997.52;1740986;81;21149;-67
2022/01/25 09:28:39;;;;;;;31.63;13.77;;;;;;;-4.81;73.91;100997.22;1742898;81;21135;-67
2022/01/25 09:31:07;;;;;;;39.23;17.03;;;;;;;-4.55;72.41;100995.67;1744092;81;21004;-67
2022/01/25 09:33:34;;;;;;;40.37;17.53;;;;;;;-4.47;71.54;100989.52;1723113;81;21047;-68
2022/01/25 09:36:01;;;;;;;59.87;24.83;;;;;;;-4.32;70.61;100998.23;1772967;80;21026;-69
2022/01/25 09:38:31;;;;;;;85.73;30.37;;;;;;;-4.33;68.77;100997.75;1782806;79;21012;-68
2022/01/25 09:40:58;;;;;;;125.93;45.97;;;;;;;-4.25;69.76;100986.06;1792827;80;23261;-68
2022/01/25 09:43:27;;;;;;;174.47;58.45;;;;;;;-3.91;70.95;100980.82;1722597;82;21023;-69
2022/01/25 09:45:55;;;;;;;67.43;27.30;;;;;;;-3.85;68.22;100975.90;1702912;83;21064;-69
2022/01/25 09:48:21;;;;;;;107.63;36.95;;;;;;;-3.81;67.31;100966.18;1703175;83;21041;-69
2022/01/25 09:50:47;;;;;;;56.75;23.77;;;;;;;-3.71;68.45;100956.66;1732150;82;21100;-68
2022/01/25 09:53:14;;;;;;;64.57;24.93;;;;;;;-3.78;65.41;100959.84;1716900;83;21137;-69
2022/01/25 09:55:42;;;;;;;60.87;25.77;;;;;;;-3.90;65.90;100946.56;1747632;82;21005;-69
2022/01/25 09:58:13;;;;;;;48.87;20.27;;;;;;;-4.00;66.67;100945.37;1719231;83;21069;-69
2022/01/25 10:00:42;;;;;;;39.27;17.05;;;;;;;-4.05;66.25;100935.31;1722376;82;21699;-69
2022/01/25 10:03:21;;;;;;;36.10;17.20;;;;;;;-4.04;67.32;100930.23;1706370;83;21568;-68
2022/01/25 10:05:48;;;;;;;56.55;24.05;;;;;;;-3.97;66.05;100929.16;1713960;83;21782;-68
2022/01/25 10:08:17;;;;;;;38.85;19.70;;;;;;;-3.99;66.66;100930.80;1713568;83;21085;-67
2022/01/25 10:10:57;;;;;;;68.15;27.15;;;;;;;-4.01;66.04;100935.47;1747933;82;21162;-68
2022/01/25 10:13:34;;;;;;;42.03;19.02;;;;;;;-3.96;67.51;100933.47;1719154;83;21156;-68
2022/01/25 10:16:11;;;;;;;120.97;41.58;;;;;;;-3.85;67.02;100933.44;1733362;82;21073;-68
2022/01/25 10:18:47;;;;;;;62.00;26.60;;;;;;;-3.99;66.01;100926.53;1704081;83;21106;-67
2022/01/25 10:24:31;;;;;;;34.77;18.40;;;;;;;-3.79;65.57;100923.36;1802263;79;23442;-66
2022/01/25 10:27:06;;;;;;;35.07;16.70;;;;;;;-3.84;64.49;100928.77;1768078;80;21065;-66
2022/01/25 10:29:35;;;;;;;78.93;29.27;;;;;;;-3.92;64.35;100926.33;1769119;80;21596;-66
2022/01/25 10:32:13;;;;;;;45.80;22.50;;;;;;;-4.09;64.68;100909.91;1769946;80;21203;-68
2022/01/25 10:34:45;;;;;;;59.27;25.32;;;;;;;-4.10;65.61;100905.56;1742595;81;21067;-67
2022/01/25 10:37:14;;;;;;;78.57;30.48;;;;;;;-4.05;65.65;100899.29;1719903;83;21080;-68
2022/01/25 10:39:47;;;;;;;106.35;39.53;;;;;;;-3.91;66.39;100892.04;1691039;84;21085;-68
2022/01/25 10:42:26;;;;;;;78.92;30.30;;;;;;;-3.47;65.33;100887.08;1689961;84;21150;-68
2022/01/25 10:44:59;;;;;;;48.05;22.07;;;;;;;-2.85;62.66;100880.81;1696203;84;21095;-68
2022/01/25 10:47:49;;;;;;;60.58;24.65;;;;;;;-2.20;60.40;100886.50;1688970;84;21069;-67
2022/01/25 10:50:34;;;;;;;44.58;20.55;;;;;;;-1.86;59.07;100883.09;1692778;84;21116;-67
2022/01/25 10:53:26;;;;;;;73.33;27.15;;;;;;;-1.39;57.35;100879.91;1694882;83;21635;-67
2022/01/25 10:55:53;;;;;;;52.08;25.72;;;;;;;-1.31;56.08;100875.81;1609512;88;21164;-67
2022/01/25 10:58:21;;;;;;;42.17;19.60;;;;;;;-1.09;54.83;100868.97;1610285;88;21135;-66
2022/01/25 11:00:51;;;;;;;42.58;21.05;;;;;;;-0.86;54.03;100866.02;1609194;88;21097;-69
2022/01/25 11:03:29;;;;;;;38.75;20.32;;;;;;;-0.86;53.47;100860.84;1610857;88;21084;-69
2022/01/25 11:05:57;;;;;;;36.80;19.55;;;;;;;-0.76;53.84;100844.70;1603913;87;21068;-68
2022/01/25 11:08:25;;;;;;;37.03;20.95;;;;;;;-0.40;52.95;100853.14;1602713;89;22213;-69
2022/01/25 11:10:56;;;;;;;37.90;19.55;;;;;;;0.24;52.97;100844.36;1579820;88;21107;-68
2022/01/25 11:13:48;;;;;;;36.55;19.77;;;;;;;0.96;52.28;100838.52;1578325;89;21598;-69
2022/01/25 11:15:51;;;;;;;35.78;19.37;;;;;;;1.60;50.26;100834.54;1571663;89;21095;-69
2022/01/25 11:18:18;;;;;;;37.75;20.00;;;;;;;1.75;48.06;100827.36;1577275;90;21147;-68
2022/01/25 11:20:44;;;;;;;40.25;20.25;;;;;;;1.49;46.22;100827.06;1590786;89;21149;-67
2022/01/25 11:23:11;;;;;;;32.90;19.37;;;;;;;0.51;47.79;100829.25;1596197;89;21075;-68
2022/01/25 11:25:41;;;;;;;40.20;19.57;;;;;;;0.51;47.79;100829.25;1602041;89;21116;-68
2022/01/25 11:28:07;;;;;;;37.23;19.45;;;;;;;0.54;48.80;100831.02;1602723;89;21586;-69
2022/01/25 11:30:36;;;;;;;36.93;18.17;;;;;;;0.87;48.27;100822.83;1596599;88;21154;-68
2022/01/25 11:33:02;;;;;;;38.65;19.40;;;;;;;1.20;47.13;100817.66;1553665;89;22154;-69
2022/01/25 11:35:29;;;;;;;36.53;19.67;;;;;;;1.04;46.25;100814.86;1602184;88;21679;-68
2022/01/25 11:37:56;;;;;;;42.05;20.43;;;;;;;1.04;46.25;100814.86;1586319;89;21612;-68
2022/01/25 11:40:27;;;;;;;39.35;19.92;;;;;;;0.89;47.57;100813.36;1601693;89;21087;-68
2022/01/25 11:43:00;;;;;;;38.23;18.42;;;;;;;1.08;47.13;100806.67;1601103;89;21143;-68
2022/01/25 11:45:32;;;;;;;40.35;19.57;;;;;;;1.17;46.71;100802.03;1598572;88;21144;-68
2022/01/25 11:47:58;;;;;;;34.08;18.32;;;;;;;0.95;45.58;100787.95;1581499;90;21178;-66
2022/01/25 11:50:28;;;;;;;38.45;19.95;;;;;;;0.50;46.57;100787.32;1586734;89;21072;-68
2022/01/25 11:53:05;;;;;;;36.77;18.17;;;;;;;0.35;47.30;100772.86;1552312;91;21159;-68
2022/01/25 11:55:30;;;;;;;35.75;19.15;;;;;;;0.36;47.47;100775.89;1590060;88;21165;-68
2022/01/25 11:58:13;;;;;;;40.03;20.20;;;;;;;0.28;47.25;100768.02;1605555;88;21186;-68
2022/01/25 12:00:56;;;;;;;40.43;20.65;;;;;;;0.14;47.43;100767.80;1597994;89;21093;-68
2022/01/25 12:03:40;;;;;;;39.18;17.80;;;;;;;-0.17;48.19;100753.91;1621632;88;21733;-67
2022/01/25 12:06:21;;;;;;;37.95;17.48;;;;;;;-0.20;48.87;100747.39;1609213;86;21125;-68
2022/01/25 12:11:59;;;;;;;33.48;17.52;;;;;;;-0.15;47.03;100744.02;1598141;88;21341;-68
2022/01/25 12:14:30;;;;;;;38.92;17.77;;;;;;;-0.18;48.18;100739.20;1598673;88;21089;-69
2022/01/25 12:17:09;;;;;;;34.67;18.50;;;;;;;-0.01;48.22;100746.83;1597568;88;21086;-68
2022/01/25 12:19:53;;;;;;;35.03;18.95;;;;;;;0.07;48.28;100743.95;1598373;88;21157;-68
2022/01/25 12:25:24;;;;;;;43.92;19.50;;;;;;;-0.36;47.30;100726.84;1620532;88;21533;-69
2022/01/25 12:28:06;;;;;;;36.00;18.15;;;;;;;-0.88;48.23;100724.17;1553129;89;21090;-68
2022/01/25 12:30:40;;;;;;;39.78;19.45;;;;;;;-1.21;49.67;100727.85;1610315;88;21049;-68
2022/01/25 12:33:28;;;;;;;39.58;20.08;;;;;;;-1.31;49.99;100723.35;1602835;88;21651;-70
2022/01/25 12:36:04;;;;;;;39.85;18.32;;;;;;;-1.45;50.13;100716.57;1614803;88;21041;-68
2022/01/25 12:38:46;;;;;;;44.73;20.52;;;;;;;-1.59;50.72;100714.98;1623331;88;21539;-68
2022/01/25 12:41:24;;;;;;;47.40;20.53;;;;;;;-1.73;51.02;100717.69;1613131;88;21117;-68
2022/01/25 12:43:58;;;;;;;40.58;19.37;;;;;;;-1.86;51.57;100723.41;1599660;88;21715;-71
2022/01/25 12:46:28;;;;;;;46.13;20.60;;;;;;;-1.99;51.54;100711.52;1609409;88;22239;-67
2022/01/25 12:49:04;;;;;;;42.83;20.27;;;;;;;-1.98;52.24;100708.13;1600553;88;21679;-69
2022/01/25 12:51:35;;;;;;;43.83;19.52;;;;;;;-2.08;52.16;100711.30;1601728;87;21308;-68
2022/01/25 12:54:06;;;;;;;49.50;20.80;;;;;;;-2.41;52.88;100703.64;1603584;88;21125;-68
2022/01/25 12:56:35;;;;;;;;;;;;;;;-3.06;54.14;100703.64;1620775;88;21565;-67
2022/01/25 12:59:13;;;;;;;49.03;20.70;;;;;;;-3.63;55.89;100709.36;1618692;88;20242;-67